sensor_id;sensor_type;location;lat;lon;timestamp;temperature;humidity
11009;DHT22;5557;51.670;7.788;2023-07-22T00:01:36;13.30;78.70
11009;DHT22;5557;51.670;7.788;2023-07-22T00:04:04;13.30;80.50
11009;DHT22;5557;51.670;7.788;2023-07-22T00:06:31;13.20;83.30
11009;DHT22;5557;51.670;7.788;2023-07-22T00:08:58;13.20;86.40
11009;DHT22;5557;51.670;7.788;2023-07-22T00:11:25;13.10;90.40
11009;DHT22;5557;51.670;7.788;2023-07-22T00:13:52;13.10;91.50
11009;DHT22;5557;51.670;7.788;2023-07-22T00:16:19;13.00;92.70
11009;DHT22;5557;51.670;7.788;2023-07-22T00:18:46;13.10;93.40
11009;DHT22;5557;51.670;7.788;2023-07-22T00:21:14;13.10;93.70
11009;DHT22;5557;51.670;7.788;2023-07-22T00:23:42;13.00;94.70
11009;DHT22;5557;51.670;7.788;2023-07-22T00:26:09;13.10;94.60
11009;DHT22;5557;51.670;7.788;2023-07-22T00:28:36;13.10;93.70
11009;DHT22;5557;51.670;7.788;2023-07-22T00:31:03;13.10;93.40
11009;DHT22;5557;51.670;7.788;2023-07-22T00:33:31;13.00;93.30
11009;DHT22;5557;51.670;7.788;2023-07-22T00:35:58;12.90;93.10
11009;DHT22;5557;51.670;7.788;2023-07-22T00:38:25;12.80;95.00
11009;DHT22;5557;51.670;7.788;2023-07-22T00:40:52;12.80;95.30
11009;DHT22;5557;51.670;7.788;2023-07-22T00:43:20;12.80;95.50
11009;DHT22;5557;51.670;7.788;2023-07-22T00:45:47;12.80;96.10
11009;DHT22;5557;51.670;7.788;2023-07-22T00:48:14;12.80;95.40
11009;DHT22;5557;51.670;7.788;2023-07-22T00:50:42;12.80;95.10
11009;DHT22;5557;51.670;7.788;2023-07-22T00:53:10;12.90;95.00
11009;DHT22;5557;51.670;7.788;2023-07-22T00:55:39;12.90;93.70
11009;DHT22;5557;51.670;7.788;2023-07-22T00:58:07;12.90;92.70
11009;DHT22;5557;51.670;7.788;2023-07-22T01:00:34;13.00;92.30
11009;DHT22;5557;51.670;7.788;2023-07-22T01:03:01;13.00;91.70
11009;DHT22;5557;51.670;7.788;2023-07-22T01:05:30;13.00;90.70
11009;DHT22;5557;51.670;7.788;2023-07-22T01:07:57;13.00;89.90
11009;DHT22;5557;51.670;7.788;2023-07-22T01:10:24;13.00;88.80
11009;DHT22;5557;51.670;7.788;2023-07-22T01:12:51;13.00;86.50
11009;DHT22;5557;51.670;7.788;2023-07-22T01:15:18;13.00;84.10
11009;DHT22;5557;51.670;7.788;2023-07-22T01:17:46;13.00;82.30
11009;DHT22;5557;51.670;7.788;2023-07-22T01:20:13;13.10;79.20
11009;DHT22;5557;51.670;7.788;2023-07-22T01:22:42;13.10;78.40
11009;DHT22;5557;51.670;7.788;2023-07-22T01:25:10;13.00;78.70
11009;DHT22;5557;51.670;7.788;2023-07-22T01:27:38;13.00;79.60
11009;DHT22;5557;51.670;7.788;2023-07-22T01:30:05;13.00;80.00
11009;DHT22;5557;51.670;7.788;2023-07-22T01:32:36;13.00;79.70
11009;DHT22;5557;51.670;7.788;2023-07-22T01:35:06;13.00;77.00
11009;DHT22;5557;51.670;7.788;2023-07-22T01:37:37;13.00;76.20
11009;DHT22;5557;51.670;7.788;2023-07-22T01:40:04;13.00;76.10
11009;DHT22;5557;51.670;7.788;2023-07-22T01:42:39;13.00;77.10
11009;DHT22;5557;51.670;7.788;2023-07-22T01:45:07;13.00;76.40
11009;DHT22;5557;51.670;7.788;2023-07-22T01:47:35;13.00;77.40
11009;DHT22;5557;51.670;7.788;2023-07-22T01:50:03;13.00;76.60
11009;DHT22;5557;51.670;7.788;2023-07-22T01:52:30;13.00;77.60
11009;DHT22;5557;51.670;7.788;2023-07-22T01:54:57;13.00;77.50
11009;DHT22;5557;51.670;7.788;2023-07-22T01:57:24;13.00;77.70
11009;DHT22;5557;51.670;7.788;2023-07-22T01:59:51;13.00;77.70
11009;DHT22;5557;51.670;7.788;2023-07-22T02:02:19;13.00;78.30
11009;DHT22;5557;51.670;7.788;2023-07-22T02:04:47;13.00;78.30
11009;DHT22;5557;51.670;7.788;2023-07-22T02:07:14;13.00;78.40
11009;DHT22;5557;51.670;7.788;2023-07-22T02:09:42;13.00;76.90
11009;DHT22;5557;51.670;7.788;2023-07-22T02:12:09;13.00;79.50
11009;DHT22;5557;51.670;7.788;2023-07-22T02:14:37;12.90;78.80
11009;DHT22;5557;51.670;7.788;2023-07-22T02:17:04;13.00;81.30
11009;DHT22;5557;51.670;7.788;2023-07-22T02:19:31;13.00;82.10
11009;DHT22;5557;51.670;7.788;2023-07-22T02:21:59;13.00;81.80
11009;DHT22;5557;51.670;7.788;2023-07-22T02:24:26;13.00;82.10
11009;DHT22;5557;51.670;7.788;2023-07-22T02:26:53;13.00;82.90
11009;DHT22;5557;51.670;7.788;2023-07-22T02:29:20;13.00;82.10
11009;DHT22;5557;51.670;7.788;2023-07-22T02:31:47;13.00;81.00
11009;DHT22;5557;51.670;7.788;2023-07-22T02:34:14;13.00;81.50
11009;DHT22;5557;51.670;7.788;2023-07-22T02:36:42;13.00;83.10
11009;DHT22;5557;51.670;7.788;2023-07-22T02:39:09;13.00;83.00
11009;DHT22;5557;51.670;7.788;2023-07-22T02:41:36;13.00;82.70
11009;DHT22;5557;51.670;7.788;2023-07-22T02:44:03;13.00;81.90
11009;DHT22;5557;51.670;7.788;2023-07-22T02:46:30;12.90;82.60
11009;DHT22;5557;51.670;7.788;2023-07-22T02:48:58;12.90;84.50
11009;DHT22;5557;51.670;7.788;2023-07-22T02:51:28;12.80;84.60
11009;DHT22;5557;51.670;7.788;2023-07-22T02:53:56;12.80;86.40
11009;DHT22;5557;51.670;7.788;2023-07-22T02:56:23;12.70;86.00
11009;DHT22;5557;51.670;7.788;2023-07-22T02:58:51;12.70;87.60
11009;DHT22;5557;51.670;7.788;2023-07-22T03:01:18;12.60;89.10
11009;DHT22;5557;51.670;7.788;2023-07-22T03:03:45;12.60;91.00
11009;DHT22;5557;51.670;7.788;2023-07-22T03:06:14;12.70;92.00
11009;DHT22;5557;51.670;7.788;2023-07-22T03:08:41;12.70;91.30
11009;DHT22;5557;51.670;7.788;2023-07-22T03:11:08;12.80;91.00
11009;DHT22;5557;51.670;7.788;2023-07-22T03:13:35;12.90;90.70
11009;DHT22;5557;51.670;7.788;2023-07-22T03:16:02;12.90;88.00
11009;DHT22;5557;51.670;7.788;2023-07-22T03:18:31;12.90;86.90
11009;DHT22;5557;51.670;7.788;2023-07-22T03:20:58;12.80;87.20
11009;DHT22;5557;51.670;7.788;2023-07-22T03:23:25;12.80;88.90
11009;DHT22;5557;51.670;7.788;2023-07-22T03:25:52;12.70;90.20
11009;DHT22;5557;51.670;7.788;2023-07-22T03:28:19;12.70;90.90
11009;DHT22;5557;51.670;7.788;2023-07-22T03:33:16;12.70;91.70
11009;DHT22;5557;51.670;7.788;2023-07-22T03:35:44;12.70;91.90
11009;DHT22;5557;51.670;7.788;2023-07-22T03:38:11;12.70;91.30
11009;DHT22;5557;51.670;7.788;2023-07-22T03:40:38;12.70;91.50
11009;DHT22;5557;51.670;7.788;2023-07-22T03:43:05;12.80;91.00
11009;DHT22;5557;51.670;7.788;2023-07-22T03:45:32;12.80;90.60
11009;DHT22;5557;51.670;7.788;2023-07-22T03:48:00;12.90;90.30
11009;DHT22;5557;51.670;7.788;2023-07-22T03:50:28;12.90;91.50
11009;DHT22;5557;51.670;7.788;2023-07-22T03:52:55;13.00;92.70
11009;DHT22;5557;51.670;7.788;2023-07-22T03:55:22;12.90;93.80
11009;DHT22;5557;51.670;7.788;2023-07-22T03:57:49;12.90;94.60
11009;DHT22;5557;51.670;7.788;2023-07-22T04:00:16;12.90;99.40
11009;DHT22;5557;51.670;7.788;2023-07-22T04:02:43;12.90;99.90
11009;DHT22;5557;51.670;7.788;2023-07-22T04:05:11;12.90;99.90
11009;DHT22;5557;51.670;7.788;2023-07-22T04:07:38;13.00;99.90
11009;DHT22;5557;51.670;7.788;2023-07-22T04:10:06;13.00;99.90
11009;DHT22;5557;51.670;7.788;2023-07-22T04:12:33;13.00;99.90
11009;DHT22;5557;51.670;7.788;2023-07-22T04:15:00;13.00;99.90
11009;DHT22;5557;51.670;7.788;2023-07-22T04:17:27;13.00;99.00
11009;DHT22;5557;51.670;7.788;2023-07-22T04:19:54;13.00;99.10
11009;DHT22;5557;51.670;7.788;2023-07-22T04:22:21;13.00;99.40
11009;DHT22;5557;51.670;7.788;2023-07-22T04:24:48;13.00;99.90
11009;DHT22;5557;51.670;7.788;2023-07-22T04:27:16;13.00;99.50
11009;DHT22;5557;51.670;7.788;2023-07-22T04:29:43;13.00;99.80
11009;DHT22;5557;51.670;7.788;2023-07-22T04:32:11;13.10;99.30
11009;DHT22;5557;51.670;7.788;2023-07-22T04:34:38;13.10;98.20
11009;DHT22;5557;51.670;7.788;2023-07-22T04:37:06;13.20;96.00
11009;DHT22;5557;51.670;7.788;2023-07-22T04:39:33;13.20;95.90
11009;DHT22;5557;51.670;7.788;2023-07-22T04:42:01;13.20;93.50
11009;DHT22;5557;51.670;7.788;2023-07-22T04:44:28;13.30;95.60
11009;DHT22;5557;51.670;7.788;2023-07-22T04:46:55;13.30;94.90
11009;DHT22;5557;51.670;7.788;2023-07-22T04:49:22;13.30;94.90
11009;DHT22;5557;51.670;7.788;2023-07-22T04:51:49;13.30;96.80
11009;DHT22;5557;51.670;7.788;2023-07-22T04:54:17;13.40;98.90
11009;DHT22;5557;51.670;7.788;2023-07-22T04:56:45;13.40;99.90
11009;DHT22;5557;51.670;7.788;2023-07-22T04:59:12;13.30;99.90
11009;DHT22;5557;51.670;7.788;2023-07-22T05:01:41;13.20;99.90
11009;DHT22;5557;51.670;7.788;2023-07-22T05:04:08;13.20;99.90
11009;DHT22;5557;51.670;7.788;2023-07-22T05:06:35;13.10;99.90
11009;DHT22;5557;51.670;7.788;2023-07-22T05:09:03;13.00;99.90
11009;DHT22;5557;51.670;7.788;2023-07-22T05:11:30;12.90;99.90
11009;DHT22;5557;51.670;7.788;2023-07-22T05:13:57;12.90;99.90
11009;DHT22;5557;51.670;7.788;2023-07-22T05:16:24;12.90;99.90
11009;DHT22;5557;51.670;7.788;2023-07-22T05:18:52;12.90;99.90
11009;DHT22;5557;51.670;7.788;2023-07-22T05:21:19;12.90;99.90
11009;DHT22;5557;51.670;7.788;2023-07-22T05:23:46;12.90;99.90
11009;DHT22;5557;51.670;7.788;2023-07-22T05:26:14;12.90;99.90
11009;DHT22;5557;51.670;7.788;2023-07-22T05:28:41;13.00;99.90
11009;DHT22;5557;51.670;7.788;2023-07-22T05:31:08;13.10;99.90
11009;DHT22;5557;51.670;7.788;2023-07-22T05:33:36;13.20;99.90
11009;DHT22;5557;51.670;7.788;2023-07-22T05:36:05;13.30;99.90
11009;DHT22;5557;51.670;7.788;2023-07-22T05:38:32;13.40;99.90
11009;DHT22;5557;51.670;7.788;2023-07-22T05:40:59;13.50;99.90
11009;DHT22;5557;51.670;7.788;2023-07-22T05:43:26;13.50;99.90
11009;DHT22;5557;51.670;7.788;2023-07-22T05:45:53;13.50;99.90
11009;DHT22;5557;51.670;7.788;2023-07-22T05:48:21;13.50;99.90
11009;DHT22;5557;51.670;7.788;2023-07-22T05:50:48;13.50;99.90
11009;DHT22;5557;51.670;7.788;2023-07-22T05:53:16;13.60;99.90
11009;DHT22;5557;51.670;7.788;2023-07-22T05:55:43;13.70;99.90
11009;DHT22;5557;51.670;7.788;2023-07-22T05:58:16;13.70;99.90
11009;DHT22;5557;51.670;7.788;2023-07-22T06:00:44;13.70;99.90
11009;DHT22;5557;51.670;7.788;2023-07-22T06:03:11;13.80;99.90
11009;DHT22;5557;51.670;7.788;2023-07-22T06:05:38;13.80;99.90
11009;DHT22;5557;51.670;7.788;2023-07-22T06:08:05;13.90;99.90
11009;DHT22;5557;51.670;7.788;2023-07-22T06:10:32;14.10;99.90
11009;DHT22;5557;51.670;7.788;2023-07-22T06:12:59;14.30;99.90
11009;DHT22;5557;51.670;7.788;2023-07-22T06:15:26;14.50;99.90
11009;DHT22;5557;51.670;7.788;2023-07-22T06:17:53;14.70;99.90
11009;DHT22;5557;51.670;7.788;2023-07-22T06:20:20;14.90;99.90
11009;DHT22;5557;51.670;7.788;2023-07-22T06:22:48;15.10;96.00
11009;DHT22;5557;51.670;7.788;2023-07-22T06:25:15;15.10;85.00
11009;DHT22;5557;51.670;7.788;2023-07-22T06:27:42;15.30;85.30
11009;DHT22;5557;51.670;7.788;2023-07-22T06:30:15;15.30;76.10
11009;DHT22;5557;51.670;7.788;2023-07-22T06:32:42;15.50;80.80
11009;DHT22;5557;51.670;7.788;2023-07-22T06:35:10;15.50;81.30
11009;DHT22;5557;51.670;7.788;2023-07-22T06:37:37;15.60;73.90
11009;DHT22;5557;51.670;7.788;2023-07-22T06:40:05;15.60;68.80
11009;DHT22;5557;51.670;7.788;2023-07-22T06:42:32;15.70;71.20
11009;DHT22;5557;51.670;7.788;2023-07-22T06:44:59;15.70;69.10
11009;DHT22;5557;51.670;7.788;2023-07-22T06:47:26;15.90;69.20
11009;DHT22;5557;51.670;7.788;2023-07-22T06:49:53;16.00;67.00
11009;DHT22;5557;51.670;7.788;2023-07-22T06:52:20;16.20;66.50
11009;DHT22;5557;51.670;7.788;2023-07-22T06:54:47;16.30;60.20
11009;DHT22;5557;51.670;7.788;2023-07-22T06:57:14;16.60;63.30
11009;DHT22;5557;51.670;7.788;2023-07-22T06:59:41;17.00;52.50
11009;DHT22;5557;51.670;7.788;2023-07-22T07:02:08;17.50;47.90
11009;DHT22;5557;51.670;7.788;2023-07-22T07:04:35;18.30;30.20
11009;DHT22;5557;51.670;7.788;2023-07-22T07:07:02;18.90;24.70
11009;DHT22;5557;51.670;7.788;2023-07-22T07:09:29;19.30;13.40
11009;DHT22;5557;51.670;7.788;2023-07-22T07:11:57;19.70;9.80
11009;DHT22;5557;51.670;7.788;2023-07-22T07:14:24;19.90;8.00
11009;DHT22;5557;51.670;7.788;2023-07-22T07:16:54;20.10;2.60
11009;DHT22;5557;51.670;7.788;2023-07-22T07:19:21;20.10;3.40
11009;DHT22;5557;51.670;7.788;2023-07-22T07:21:48;19.80;2.90
11009;DHT22;5557;51.670;7.788;2023-07-22T07:24:17;19.60;6.00
11009;DHT22;5557;51.670;7.788;2023-07-22T07:26:44;19.70;6.10
11009;DHT22;5557;51.670;7.788;2023-07-22T07:29:12;20.10;5.30
11009;DHT22;5557;51.670;7.788;2023-07-22T07:31:46;20.70;1.00
11009;DHT22;5557;51.670;7.788;2023-07-22T07:34:14;21.30;1.00
11009;DHT22;5557;51.670;7.788;2023-07-22T07:36:41;22.00;1.00
11009;DHT22;5557;51.670;7.788;2023-07-22T07:39:08;22.10;1.00
11009;DHT22;5557;51.670;7.788;2023-07-22T07:41:35;22.00;1.00
11009;DHT22;5557;51.670;7.788;2023-07-22T07:44:02;21.90;1.00
11009;DHT22;5557;51.670;7.788;2023-07-22T07:46:29;22.00;1.00
11009;DHT22;5557;51.670;7.788;2023-07-22T07:49:01;22.30;1.00
11009;DHT22;5557;51.670;7.788;2023-07-22T07:51:30;22.40;1.00
11009;DHT22;5557;51.670;7.788;2023-07-22T07:53:58;22.30;1.00
11009;DHT22;5557;51.670;7.788;2023-07-22T07:56:25;22.40;1.00
11009;DHT22;5557;51.670;7.788;2023-07-22T07:58:54;22.40;1.00
11009;DHT22;5557;51.670;7.788;2023-07-22T08:01:21;22.70;1.00
11009;DHT22;5557;51.670;7.788;2023-07-22T08:03:49;23.20;1.00
11009;DHT22;5557;51.670;7.788;2023-07-22T08:06:16;23.10;1.00
11009;DHT22;5557;51.670;7.788;2023-07-22T08:08:46;22.90;1.00
11009;DHT22;5557;51.670;7.788;2023-07-22T08:11:15;22.70;1.00
11009;DHT22;5557;51.670;7.788;2023-07-22T08:13:43;22.60;1.00
11009;DHT22;5557;51.670;7.788;2023-07-22T08:16:12;23.10;1.00
11009;DHT22;5557;51.670;7.788;2023-07-22T08:18:40;24.10;1.00
11009;DHT22;5557;51.670;7.788;2023-07-22T08:21:07;25.00;1.00
11009;DHT22;5557;51.670;7.788;2023-07-22T08:23:35;25.30;1.00
11009;DHT22;5557;51.670;7.788;2023-07-22T08:26:04;25.10;1.00
11009;DHT22;5557;51.670;7.788;2023-07-22T08:28:34;25.00;1.00
11009;DHT22;5557;51.670;7.788;2023-07-22T08:31:02;24.80;1.00
11009;DHT22;5557;51.670;7.788;2023-07-22T08:33:31;24.40;1.00
11009;DHT22;5557;51.670;7.788;2023-07-22T08:36:01;23.90;1.00
11009;DHT22;5557;51.670;7.788;2023-07-22T08:38:30;23.20;1.00
11009;DHT22;5557;51.670;7.788;2023-07-22T08:40:57;22.70;1.00
11009;DHT22;5557;51.670;7.788;2023-07-22T08:43:24;23.20;1.00
11009;DHT22;5557;51.670;7.788;2023-07-22T08:45:54;23.50;1.00
11009;DHT22;5557;51.670;7.788;2023-07-22T08:48:26;24.20;1.00
11009;DHT22;5557;51.670;7.788;2023-07-22T08:50:55;23.90;1.00
11009;DHT22;5557;51.670;7.788;2023-07-22T08:53:24;23.60;1.00
11009;DHT22;5557;51.670;7.788;2023-07-22T08:55:52;24.00;1.00
11009;DHT22;5557;51.670;7.788;2023-07-22T08:58:20;24.20;1.00
11009;DHT22;5557;51.670;7.788;2023-07-22T09:00:47;24.50;1.00
11009;DHT22;5557;51.670;7.788;2023-07-22T09:03:16;24.70;1.00
11009;DHT22;5557;51.670;7.788;2023-07-22T09:05:44;25.30;1.00
11009;DHT22;5557;51.670;7.788;2023-07-22T09:08:12;25.90;1.00
11009;DHT22;5557;51.670;7.788;2023-07-22T09:10:40;25.50;1.00
11009;DHT22;5557;51.670;7.788;2023-07-22T09:13:08;25.20;1.00
11009;DHT22;5557;51.670;7.788;2023-07-22T09:15:36;25.40;1.00
11009;DHT22;5557;51.670;7.788;2023-07-22T09:18:04;26.00;1.00
11009;DHT22;5557;51.670;7.788;2023-07-22T09:20:32;26.20;1.00
11009;DHT22;5557;51.670;7.788;2023-07-22T09:23:00;26.60;1.00
11009;DHT22;5557;51.670;7.788;2023-07-22T09:25:40;27.20;1.00
11009;DHT22;5557;51.670;7.788;2023-07-22T09:28:07;27.00;1.00
11009;DHT22;5557;51.670;7.788;2023-07-22T09:30:37;26.50;1.00
11009;DHT22;5557;51.670;7.788;2023-07-22T09:33:20;25.60;1.00
11009;DHT22;5557;51.670;7.788;2023-07-22T09:35:49;25.60;1.00
11009;DHT22;5557;51.670;7.788;2023-07-22T09:38:24;25.80;1.00
11009;DHT22;5557;51.670;7.788;2023-07-22T09:40:54;25.30;1.00
11009;DHT22;5557;51.670;7.788;2023-07-22T09:43:23;25.40;1.00
11009;DHT22;5557;51.670;7.788;2023-07-22T09:45:50;26.00;1.00
11009;DHT22;5557;51.670;7.788;2023-07-22T09:48:17;26.60;1.00
11009;DHT22;5557;51.670;7.788;2023-07-22T09:50:45;27.40;1.00
11009;DHT22;5557;51.670;7.788;2023-07-22T09:53:15;27.60;1.00
11009;DHT22;5557;51.670;7.788;2023-07-22T09:55:53;27.70;1.00
11009;DHT22;5557;51.670;7.788;2023-07-22T09:58:21;27.20;1.00
11009;DHT22;5557;51.670;7.788;2023-07-22T10:00:51;27.00;1.00
11009;DHT22;5557;51.670;7.788;2023-07-22T10:03:19;27.30;1.00
11009;DHT22;5557;51.670;7.788;2023-07-22T10:05:48;27.90;1.00
11009;DHT22;5557;51.670;7.788;2023-07-22T10:08:18;28.50;1.00
11009;DHT22;5557;51.670;7.788;2023-07-22T10:10:46;27.70;1.00
11009;DHT22;5557;51.670;7.788;2023-07-22T10:13:14;27.00;1.00
11009;DHT22;5557;51.670;7.788;2023-07-22T10:15:42;26.00;1.00
11009;DHT22;5557;51.670;7.788;2023-07-22T10:18:09;25.40;1.00
11009;DHT22;5557;51.670;7.788;2023-07-22T10:20:38;25.40;1.00
11009;DHT22;5557;51.670;7.788;2023-07-22T10:23:06;25.20;1.00
11009;DHT22;5557;51.670;7.788;2023-07-22T10:25:35;24.80;1.00
11009;DHT22;5557;51.670;7.788;2023-07-22T10:28:06;25.10;1.00
11009;DHT22;5557;51.670;7.788;2023-07-22T10:30:33;25.90;1.00
11009;DHT22;5557;51.670;7.788;2023-07-22T10:33:01;26.40;1.00
11009;DHT22;5557;51.670;7.788;2023-07-22T10:35:41;26.10;1.00
11009;DHT22;5557;51.670;7.788;2023-07-22T10:38:14;26.40;1.00
11009;DHT22;5557;51.670;7.788;2023-07-22T10:40:53;26.80;1.00
11009;DHT22;5557;51.670;7.788;2023-07-22T10:43:30;27.00;1.00
11009;DHT22;5557;51.670;7.788;2023-07-22T10:45:59;27.10;1.00
11009;DHT22;5557;51.670;7.788;2023-07-22T10:48:36;27.00;1.00
11009;DHT22;5557;51.670;7.788;2023-07-22T10:51:09;27.00;1.00
11009;DHT22;5557;51.670;7.788;2023-07-22T10:53:45;27.20;1.00
11009;DHT22;5557;51.670;7.788;2023-07-22T10:59:05;26.80;1.00
11009;DHT22;5557;51.670;7.788;2023-07-22T11:01:37;26.40;1.00
11009;DHT22;5557;51.670;7.788;2023-07-22T11:04:26;26.00;1.00
11009;DHT22;5557;51.670;7.788;2023-07-22T11:07:06;25.30;1.00
11009;DHT22;5557;51.670;7.788;2023-07-22T11:09:34;24.60;1.00
11009;DHT22;5557;51.670;7.788;2023-07-22T11:12:12;24.50;1.00
11009;DHT22;5557;51.670;7.788;2023-07-22T11:14:51;24.90;1.00
11009;DHT22;5557;51.670;7.788;2023-07-22T11:17:30;25.10;1.00
11009;DHT22;5557;51.670;7.788;2023-07-22T11:19:59;25.00;1.00
11009;DHT22;5557;51.670;7.788;2023-07-22T11:22:26;25.00;1.00
11009;DHT22;5557;51.670;7.788;2023-07-22T11:24:56;25.30;1.00
11009;DHT22;5557;51.670;7.788;2023-07-22T11:27:27;25.50;1.00
11009;DHT22;5557;51.670;7.788;2023-07-22T11:29:58;25.70;1.00
11009;DHT22;5557;51.670;7.788;2023-07-22T11:32:25;26.20;1.00
11009;DHT22;5557;51.670;7.788;2023-07-22T11:34:53;26.50;1.00
11009;DHT22;5557;51.670;7.788;2023-07-22T11:37:20;26.40;1.00
11009;DHT22;5557;51.670;7.788;2023-07-22T11:39:47;26.50;1.00
11009;DHT22;5557;51.670;7.788;2023-07-22T11:42:15;26.40;1.00
11009;DHT22;5557;51.670;7.788;2023-07-22T11:44:42;26.50;1.00
11009;DHT22;5557;51.670;7.788;2023-07-22T11:47:09;26.20;1.00
11009;DHT22;5557;51.670;7.788;2023-07-22T11:49:41;26.00;1.00
11009;DHT22;5557;51.670;7.788;2023-07-22T11:52:10;25.90;1.00
11009;DHT22;5557;51.670;7.788;2023-07-22T11:54:40;25.40;1.00
11009;DHT22;5557;51.670;7.788;2023-07-22T11:57:17;25.20;1.00
11009;DHT22;5557;51.670;7.788;2023-07-22T11:59:46;25.30;1.00
11009;DHT22;5557;51.670;7.788;2023-07-22T12:02:24;25.30;1.00
11009;DHT22;5557;51.670;7.788;2023-07-22T12:05:01;25.30;1.00
11009;DHT22;5557;51.670;7.788;2023-07-22T12:07:30;25.30;1.00
11009;DHT22;5557;51.670;7.788;2023-07-22T12:09:59;25.10;1.00
11009;DHT22;5557;51.670;7.788;2023-07-22T12:12:34;25.30;1.00
11009;DHT22;5557;51.670;7.788;2023-07-22T12:18:01;25.20;1.00
11009;DHT22;5557;51.670;7.788;2023-07-22T12:20:30;25.30;1.00
11009;DHT22;5557;51.670;7.788;2023-07-22T12:22:57;25.30;1.00
11009;DHT22;5557;51.670;7.788;2023-07-22T12:25:25;25.10;1.00
11009;DHT22;5557;51.670;7.788;2023-07-22T12:27:52;25.20;1.00
11009;DHT22;5557;51.670;7.788;2023-07-22T12:30:20;25.10;1.00
11009;DHT22;5557;51.670;7.788;2023-07-22T12:32:48;24.80;1.00
11009;DHT22;5557;51.670;7.788;2023-07-22T12:35:16;24.70;1.00
11009;DHT22;5557;51.670;7.788;2023-07-22T12:37:43;24.80;1.00
11009;DHT22;5557;51.670;7.788;2023-07-22T12:40:11;24.90;1.00
11009;DHT22;5557;51.670;7.788;2023-07-22T12:42:39;24.90;1.00
11009;DHT22;5557;51.670;7.788;2023-07-22T12:45:08;24.80;1.00
11009;DHT22;5557;51.670;7.788;2023-07-22T12:47:35;24.60;1.00
11009;DHT22;5557;51.670;7.788;2023-07-22T12:50:05;24.80;1.00
11009;DHT22;5557;51.670;7.788;2023-07-22T12:52:35;25.00;1.00
11009;DHT22;5557;51.670;7.788;2023-07-22T12:55:02;25.20;1.00
11009;DHT22;5557;51.670;7.788;2023-07-22T12:57:29;25.30;1.00
11009;DHT22;5557;51.670;7.788;2023-07-22T12:59:56;25.20;1.00
11009;DHT22;5557;51.670;7.788;2023-07-22T13:02:23;25.10;1.00
11009;DHT22;5557;51.670;7.788;2023-07-22T13:04:52;24.90;1.00
11009;DHT22;5557;51.670;7.788;2023-07-22T13:07:19;24.60;1.00
11009;DHT22;5557;51.670;7.788;2023-07-22T13:09:46;24.60;1.00
11009;DHT22;5557;51.670;7.788;2023-07-22T13:12:15;24.90;1.00
11009;DHT22;5557;51.670;7.788;2023-07-22T13:14:42;25.10;1.00
11009;DHT22;5557;51.670;7.788;2023-07-22T13:17:09;25.00;1.00
11009;DHT22;5557;51.670;7.788;2023-07-22T13:19:36;25.10;1.00
11009;DHT22;5557;51.670;7.788;2023-07-22T13:22:03;25.10;1.00
11009;DHT22;5557;51.670;7.788;2023-07-22T13:24:30;25.10;1.00
11009;DHT22;5557;51.670;7.788;2023-07-22T13:26:58;25.10;1.00
11009;DHT22;5557;51.670;7.788;2023-07-22T13:29:24;25.20;1.00
11009;DHT22;5557;51.670;7.788;2023-07-22T13:31:52;25.10;1.00
11009;DHT22;5557;51.670;7.788;2023-07-22T13:34:19;24.90;1.00
11009;DHT22;5557;51.670;7.788;2023-07-22T13:36:47;24.90;1.00
11009;DHT22;5557;51.670;7.788;2023-07-22T13:39:14;24.80;1.00
11009;DHT22;5557;51.670;7.788;2023-07-22T13:41:41;24.70;1.00
11009;DHT22;5557;51.670;7.788;2023-07-22T13:44:08;24.60;1.00
11009;DHT22;5557;51.670;7.788;2023-07-22T13:46:35;24.60;1.00
11009;DHT22;5557;51.670;7.788;2023-07-22T13:49:02;24.60;1.00
11009;DHT22;5557;51.670;7.788;2023-07-22T13:51:29;24.50;1.00
11009;DHT22;5557;51.670;7.788;2023-07-22T13:53:57;24.60;1.00
11009;DHT22;5557;51.670;7.788;2023-07-22T13:56:25;24.70;1.00
11009;DHT22;5557;51.670;7.788;2023-07-22T13:58:54;24.80;1.00
11009;DHT22;5557;51.670;7.788;2023-07-22T14:01:22;24.70;1.00
11009;DHT22;5557;51.670;7.788;2023-07-22T14:03:49;24.70;1.00
11009;DHT22;5557;51.670;7.788;2023-07-22T14:06:16;24.60;1.00
11009;DHT22;5557;51.670;7.788;2023-07-22T14:08:43;24.40;1.00
11009;DHT22;5557;51.670;7.788;2023-07-22T14:11:10;24.40;1.00
11009;DHT22;5557;51.670;7.788;2023-07-22T14:13:38;24.50;1.00
11009;DHT22;5557;51.670;7.788;2023-07-22T14:16:05;24.50;1.00
11009;DHT22;5557;51.670;7.788;2023-07-22T14:18:47;24.50;1.00
11009;DHT22;5557;51.670;7.788;2023-07-22T14:21:15;24.30;1.00
11009;DHT22;5557;51.670;7.788;2023-07-22T14:23:42;24.30;1.00
11009;DHT22;5557;51.670;7.788;2023-07-22T14:26:11;24.50;1.00
11009;DHT22;5557;51.670;7.788;2023-07-22T14:28:38;24.60;1.00
11009;DHT22;5557;51.670;7.788;2023-07-22T14:31:05;24.70;1.00
11009;DHT22;5557;51.670;7.788;2023-07-22T14:33:32;25.00;1.00
11009;DHT22;5557;51.670;7.788;2023-07-22T14:36:00;25.10;1.00
11009;DHT22;5557;51.670;7.788;2023-07-22T14:38:27;24.90;1.00
11009;DHT22;5557;51.670;7.788;2023-07-22T14:40:54;24.70;1.00
11009;DHT22;5557;51.670;7.788;2023-07-22T14:43:22;24.60;1.00
11009;DHT22;5557;51.670;7.788;2023-07-22T14:45:49;24.50;1.00
11009;DHT22;5557;51.670;7.788;2023-07-22T14:48:16;24.30;1.00
11009;DHT22;5557;51.670;7.788;2023-07-22T14:50:43;24.10;1.00
11009;DHT22;5557;51.670;7.788;2023-07-22T14:53:10;24.10;1.00
11009;DHT22;5557;51.670;7.788;2023-07-22T14:55:37;24.20;1.00
11009;DHT22;5557;51.670;7.788;2023-07-22T14:58:04;24.20;1.00
11009;DHT22;5557;51.670;7.788;2023-07-22T15:00:31;24.30;1.00
11009;DHT22;5557;51.670;7.788;2023-07-22T15:02:58;24.30;1.00
11009;DHT22;5557;51.670;7.788;2023-07-22T15:05:25;24.40;1.00
11009;DHT22;5557;51.670;7.788;2023-07-22T15:07:53;24.50;1.00
11009;DHT22;5557;51.670;7.788;2023-07-22T15:10:20;24.40;1.00
11009;DHT22;5557;51.670;7.788;2023-07-22T15:12:47;24.40;1.00
11009;DHT22;5557;51.670;7.788;2023-07-22T15:15:16;24.30;1.00
11009;DHT22;5557;51.670;7.788;2023-07-22T15:17:44;24.20;1.00
11009;DHT22;5557;51.670;7.788;2023-07-22T15:20:12;24.10;1.00
11009;DHT22;5557;51.670;7.788;2023-07-22T15:22:39;24.00;1.00
11009;DHT22;5557;51.670;7.788;2023-07-22T15:25:06;23.90;1.00
11009;DHT22;5557;51.670;7.788;2023-07-22T15:27:33;23.90;1.00
11009;DHT22;5557;51.670;7.788;2023-07-22T15:30:00;23.90;1.00
11009;DHT22;5557;51.670;7.788;2023-07-22T15:32:27;23.90;1.00
11009;DHT22;5557;51.670;7.788;2023-07-22T15:34:56;23.90;1.00
11009;DHT22;5557;51.670;7.788;2023-07-22T15:37:23;24.00;1.00
11009;DHT22;5557;51.670;7.788;2023-07-22T15:39:50;24.00;1.00
11009;DHT22;5557;51.670;7.788;2023-07-22T15:42:17;24.10;1.00
11009;DHT22;5557;51.670;7.788;2023-07-22T15:44:44;24.20;1.00
11009;DHT22;5557;51.670;7.788;2023-07-22T15:47:11;24.40;1.00
11009;DHT22;5557;51.670;7.788;2023-07-22T15:49:39;24.30;1.00
11009;DHT22;5557;51.670;7.788;2023-07-22T15:52:07;24.20;1.00
11009;DHT22;5557;51.670;7.788;2023-07-22T15:54:34;24.20;1.00
11009;DHT22;5557;51.670;7.788;2023-07-22T15:57:01;24.10;1.00
11009;DHT22;5557;51.670;7.788;2023-07-22T15:59:28;24.00;1.00
11009;DHT22;5557;51.670;7.788;2023-07-22T16:01:55;23.90;1.00
11009;DHT22;5557;51.670;7.788;2023-07-22T16:04:22;23.90;1.00
11009;DHT22;5557;51.670;7.788;2023-07-22T16:06:49;24.00;1.00
11009;DHT22;5557;51.670;7.788;2023-07-22T16:09:16;24.20;1.00